sensor_id;sensor_type;location;lat;lon;timestamp;P1;durP1;ratioP1;P2;durP2;ratioP2
36963;SDS011;22878;48.616;35.326;2024-01-30T16:26:45;31.50;;;13.60;;
36963;SDS011;22878;48.616;35.326;2024-01-30T16:29:12;34.80;;;14.50;;
36963;SDS011;22878;48.616;35.326;2024-01-30T16:31:37;29.10;;;13.40;;
36963;SDS011;22878;48.616;35.326;2024-01-30T16:34:03;27.50;;;11.60;;
36963;SDS011;22878;48.616;35.326;2024-01-30T16:36:28;26.40;;;11.60;;
36963;SDS011;22878;48.616;35.326;2024-01-30T16:38:54;36.20;;;12.70;;
36963;SDS011;22878;48.616;35.326;2024-01-30T16:41:20;26.70;;;11.40;;
36963;SDS011;22878;48.616;35.326;2024-01-30T16:43:46;26.80;;;12.10;;
36963;SDS011;22878;48.616;35.326;2024-01-30T16:46:11;22.20;;;10.50;;
36963;SDS011;22878;48.616;35.326;2024-01-30T16:48:37;31.80;;;11.20;;
36963;SDS011;22878;48.616;35.326;2024-01-30T16:51:02;23.80;;;10.70;;
36963;SDS011;22878;48.616;35.326;2024-01-30T16:53:34;27.90;;;11.00;;
36963;SDS011;22878;48.616;35.326;2024-01-30T16:56:01;23.80;;;10.10;;
36963;SDS011;22878;48.616;35.326;2024-01-30T16:58:26;26.40;;;10.30;;
36963;SDS011;22878;48.616;35.326;2024-01-30T17:00:52;25.40;;;10.10;;
36963;SDS011;22878;48.616;35.326;2024-01-30T17:03:18;21.50;;;9.30;;
36963;SDS011;22878;48.616;35.326;2024-01-30T17:05:43;20.80;;;8.80;;
36963;SDS011;22878;48.616;35.326;2024-01-30T17:08:08;19.80;;;8.50;;
36963;SDS011;22878;48.616;35.326;2024-01-30T17:10:34;26.40;;;9.30;;
36963;SDS011;22878;48.616;35.326;2024-01-30T17:12:59;19.00;;;8.80;;
36963;SDS011;22878;48.616;35.326;2024-01-30T17:15:25;19.60;;;8.60;;
36963;SDS011;22878;48.616;35.326;2024-01-30T17:17:51;23.60;;;8.00;;
36963;SDS011;22878;48.616;35.326;2024-01-30T17:20:18;18.70;;;7.80;;
36963;SDS011;22878;48.616;35.326;2024-01-30T17:22:45;19.50;;;7.60;;
36963;SDS011;22878;48.616;35.326;2024-01-30T17:25:11;20.30;;;8.40;;
36963;SDS011;22878;48.616;35.326;2024-01-30T17:27:36;16.90;;;8.10;;
36963;SDS011;22878;48.616;35.326;2024-01-30T17:30:02;19.90;;;8.00;;
36963;SDS011;22878;48.616;35.326;2024-01-30T17:32:29;32.90;;;11.80;;
36963;SDS011;22878;48.616;35.326;2024-01-30T17:34:56;33.50;;;13.40;;
36963;SDS011;22878;48.616;35.326;2024-01-30T17:37:22;34.40;;;14.20;;
36963;SDS011;22878;48.616;35.326;2024-01-30T17:39:47;36.40;;;14.10;;
36963;SDS011;22878;48.616;35.326;2024-01-30T17:42:13;31.70;;;14.50;;
36963;SDS011;22878;48.616;35.326;2024-01-30T17:44:39;26.20;;;11.70;;
36963;SDS011;22878;48.616;35.326;2024-01-30T17:47:05;23.90;;;10.70;;
36963;SDS011;22878;48.616;35.326;2024-01-30T17:49:32;21.40;;;10.20;;
36963;SDS011;22878;48.616;35.326;2024-01-30T17:55:29;23.60;;;10.00;;
36963;SDS011;22878;48.616;35.326;2024-01-30T17:57:55;24.00;;;10.60;;
36963;SDS011;22878;48.616;35.326;2024-01-30T18:00:21;21.60;;;10.40;;
36963;SDS011;22878;48.616;35.326;2024-01-30T18:02:47;27.40;;;10.50;;
36963;SDS011;22878;48.616;35.326;2024-01-30T18:05:12;22.10;;;10.50;;
36963;SDS011;22878;48.616;35.326;2024-01-30T18:07:38;21.20;;;9.30;;
36963;SDS011;22878;48.616;35.326;2024-01-30T18:10:04;22.80;;;10.00;;
36963;SDS011;22878;48.616;35.326;2024-01-30T18:12:31;23.60;;;9.90;;
36963;SDS011;22878;48.616;35.326;2024-01-30T18:14:56;18.70;;;8.90;;
36963;SDS011;22878;48.616;35.326;2024-01-30T18:17:22;21.10;;;9.50;;
36963;SDS011;22878;48.616;35.326;2024-01-30T18:19:47;24.10;;;10.10;;
36963;SDS011;22878;48.616;35.326;2024-01-30T18:22:13;21.20;;;9.80;;
36963;SDS011;22878;48.616;35.326;2024-01-30T18:24:39;20.50;;;9.00;;
36963;SDS011;22878;48.616;35.326;2024-01-30T18:27:04;20.70;;;9.40;;
36963;SDS011;22878;48.616;35.326;2024-01-30T18:29:30;17.70;;;8.90;;
36963;SDS011;22878;48.616;35.326;2024-01-30T18:31:56;17.80;;;8.60;;
36963;SDS011;22878;48.616;35.326;2024-01-30T18:34:21;22.80;;;9.10;;
36963;SDS011;22878;48.616;35.326;2024-01-30T18:36:47;19.60;;;8.80;;
36963;SDS011;22878;48.616;35.326;2024-01-30T18:39:12;21.70;;;9.30;;
36963;SDS011;22878;48.616;35.326;2024-01-30T18:41:38;19.50;;;9.10;;
36963;SDS011;22878;48.616;35.326;2024-01-30T18:44:04;19.80;;;9.00;;
36963;SDS011;22878;48.616;35.326;2024-01-30T18:46:30;19.50;;;9.10;;
36963;SDS011;22878;48.616;35.326;2024-01-30T18:48:56;18.00;;;9.20;;
36963;SDS011;22878;48.616;35.326;2024-01-30T18:51:22;21.70;;;8.40;;
36963;SDS011;22878;48.616;35.326;2024-01-30T18:53:47;19.20;;;8.90;;
36963;SDS011;22878;48.616;35.326;2024-01-30T18:56:13;19.10;;;8.90;;
36963;SDS011;22878;48.616;35.326;2024-01-30T18:58:41;19.00;;;9.20;;
36963;SDS011;22878;48.616;35.326;2024-01-30T19:01:06;18.20;;;9.50;;
36963;SDS011;22878;48.616;35.326;2024-01-30T19:03:50;20.40;;;8.90;;
36963;SDS011;22878;48.616;35.326;2024-01-30T19:06:16;20.60;;;8.70;;
36963;SDS011;22878;48.616;35.326;2024-01-30T19:08:42;20.10;;;8.70;;
36963;SDS011;22878;48.616;35.326;2024-01-30T19:11:16;20.70;;;8.60;;
36963;SDS011;22878;48.616;35.326;2024-01-30T19:13:44;18.90;;;8.60;;
36963;SDS011;22878;48.616;35.326;2024-01-30T19:16:09;19.80;;;8.60;;
36963;SDS011;22878;48.616;35.326;2024-01-30T19:18:35;21.10;;;8.70;;
36963;SDS011;22878;48.616;35.326;2024-01-30T19:21:00;20.50;;;8.80;;
36963;SDS011;22878;48.616;35.326;2024-01-30T19:23:27;19.90;;;8.60;;
36963;SDS011;22878;48.616;35.326;2024-01-30T19:25:52;18.50;;;8.40;;
36963;SDS011;22878;48.616;35.326;2024-01-30T19:28:18;18.90;;;8.60;;
36963;SDS011;22878;48.616;35.326;2024-01-30T19:30:43;18.50;;;8.70;;
36963;SDS011;22878;48.616;35.326;2024-01-30T19:33:09;16.60;;;8.80;;
36963;SDS011;22878;48.616;35.326;2024-01-30T19:35:34;17.60;;;8.90;;
36963;SDS011;22878;48.616;35.326;2024-01-30T19:41:31;18.80;;;8.90;;
36963;SDS011;22878;48.616;35.326;2024-01-30T19:43:57;19.20;;;8.90;;
36963;SDS011;22878;48.616;35.326;2024-01-30T19:46:23;18.20;;;8.60;;
36963;SDS011;22878;48.616;35.326;2024-01-30T19:48:48;19.70;;;9.40;;
36963;SDS011;22878;48.616;35.326;2024-01-30T19:51:14;19.50;;;9.30;;
36963;SDS011;22878;48.616;35.326;2024-01-30T19:53:39;21.10;;;9.00;;
36963;SDS011;22878;48.616;35.326;2024-01-30T19:56:05;17.30;;;8.60;;
36963;SDS011;22878;48.616;35.326;2024-01-30T19:58:30;18.70;;;8.40;;
36963;SDS011;22878;48.616;35.326;2024-01-30T20:00:56;20.60;;;9.60;;
36963;SDS011;22878;48.616;35.326;2024-01-30T20:03:22;18.20;;;8.50;;
36963;SDS011;22878;48.616;35.326;2024-01-30T20:06:04;17.70;;;8.20;;
36963;SDS011;22878;48.616;35.326;2024-01-30T20:08:30;17.60;;;8.40;;
36963;SDS011;22878;48.616;35.326;2024-01-30T20:10:58;20.40;;;9.30;;
36963;SDS011;22878;48.616;35.326;2024-01-30T20:13:24;21.20;;;9.60;;
36963;SDS011;22878;48.616;35.326;2024-01-30T20:15:49;19.60;;;9.10;;
36963;SDS011;22878;48.616;35.326;2024-01-30T20:18:16;19.50;;;8.90;;
36963;SDS011;22878;48.616;35.326;2024-01-30T20:20:42;16.60;;;8.30;;
36963;SDS011;22878;48.616;35.326;2024-01-30T20:23:08;19.30;;;7.90;;
36963;SDS011;22878;48.616;35.326;2024-01-30T20:25:34;19.10;;;8.80;;
36963;SDS011;22878;48.616;35.326;2024-01-30T20:28:00;19.50;;;8.80;;
36963;SDS011;22878;48.616;35.326;2024-01-30T20:30:25;19.20;;;8.50;;
36963;SDS011;22878;48.616;35.326;2024-01-30T20:32:51;18.50;;;8.90;;
36963;SDS011;22878;48.616;35.326;2024-01-30T20:35:16;17.30;;;7.90;;
36963;SDS011;22878;48.616;35.326;2024-01-30T20:37:42;16.50;;;8.40;;
36963;SDS011;22878;48.616;35.326;2024-01-30T20:40:08;17.50;;;8.30;;
36963;SDS011;22878;48.616;35.326;2024-01-30T20:42:33;16.50;;;7.90;;
36963;SDS011;22878;48.616;35.326;2024-01-30T20:44:59;17.50;;;8.30;;
36963;SDS011;22878;48.616;35.326;2024-01-30T20:47:28;15.90;;;7.60;;
36963;SDS011;22878;48.616;35.326;2024-01-30T20:49:54;16.80;;;7.60;;
36963;SDS011;22878;48.616;35.326;2024-01-30T20:52:19;16.00;;;7.90;;
36963;SDS011;22878;48.616;35.326;2024-01-30T20:54:45;15.10;;;7.70;;
36963;SDS011;22878;48.616;35.326;2024-01-30T20:57:11;18.50;;;7.80;;
36963;SDS011;22878;48.616;35.326;2024-01-30T20:59:36;20.20;;;8.80;;
36963;SDS011;22878;48.616;35.326;2024-01-30T21:02:02;17.50;;;8.40;;
36963;SDS011;22878;48.616;35.326;2024-01-30T21:04:27;16.60;;;8.30;;
36963;SDS011;22878;48.616;35.326;2024-01-30T21:06:53;16.00;;;8.10;;
36963;SDS011;22878;48.616;35.326;2024-01-30T21:09:18;17.00;;;8.10;;
36963;SDS011;22878;48.616;35.326;2024-01-30T21:11:44;16.90;;;7.90;;
36963;SDS011;22878;48.616;35.326;2024-01-30T21:14:09;15.30;;;7.80;;
36963;SDS011;22878;48.616;35.326;2024-01-30T21:16:35;18.90;;;8.40;;
36963;SDS011;22878;48.616;35.326;2024-01-30T21:19:00;17.40;;;7.70;;
36963;SDS011;22878;48.616;35.326;2024-01-30T21:21:26;18.80;;;7.80;;
36963;SDS011;22878;48.616;35.326;2024-01-30T21:23:54;14.40;;;7.50;;
36963;SDS011;22878;48.616;35.326;2024-01-30T21:26:20;15.70;;;7.80;;
36963;SDS011;22878;48.616;35.326;2024-01-30T21:28:45;19.30;;;8.50;;
36963;SDS011;22878;48.616;35.326;2024-01-30T21:31:11;18.00;;;7.80;;
36963;SDS011;22878;48.616;35.326;2024-01-30T21:33:39;15.30;;;7.60;;
36963;SDS011;22878;48.616;35.326;2024-01-30T21:36:04;15.80;;;8.00;;
36963;SDS011;22878;48.616;35.326;2024-01-30T21:42:03;16.40;;;8.40;;
36963;SDS011;22878;48.616;35.326;2024-01-30T21:44:29;16.90;;;7.80;;
36963;SDS011;22878;48.616;35.326;2024-01-30T21:46:54;15.10;;;7.10;;
36963;SDS011;22878;48.616;35.326;2024-01-30T21:49:20;17.90;;;8.10;;
36963;SDS011;22878;48.616;35.326;2024-01-30T21:51:45;16.60;;;7.40;;
36963;SDS011;22878;48.616;35.326;2024-01-30T21:54:10;16.20;;;7.70;;
36963;SDS011;22878;48.616;35.326;2024-01-30T21:56:36;16.80;;;8.00;;
36963;SDS011;22878;48.616;35.326;2024-01-30T21:59:05;16.70;;;7.90;;
36963;SDS011;22878;48.616;35.326;2024-01-30T22:01:30;15.50;;;7.70;;
36963;SDS011;22878;48.616;35.326;2024-01-30T22:03:56;15.50;;;7.90;;
36963;SDS011;22878;48.616;35.326;2024-01-30T22:06:24;14.20;;;7.30;;
36963;SDS011;22878;48.616;35.326;2024-01-30T22:08:49;16.70;;;7.70;;
36963;SDS011;22878;48.616;35.326;2024-01-30T22:11:15;15.50;;;7.30;;
36963;SDS011;22878;48.616;35.326;2024-01-30T22:13:40;17.40;;;7.90;;
36963;SDS011;22878;48.616;35.326;2024-01-30T22:16:06;15.30;;;7.80;;
36963;SDS011;22878;48.616;35.326;2024-01-30T22:18:31;15.80;;;7.60;;
36963;SDS011;22878;48.616;35.326;2024-01-30T22:20:57;15.80;;;7.80;;
36963;SDS011;22878;48.616;35.326;2024-01-30T22:23:22;13.40;;;7.00;;
36963;SDS011;22878;48.616;35.326;2024-01-30T22:25:48;15.70;;;7.60;;
36963;SDS011;22878;48.616;35.326;2024-01-30T22:28:14;16.50;;;7.50;;
36963;SDS011;22878;48.616;35.326;2024-01-30T22:30:40;17.00;;;7.80;;
36963;SDS011;22878;48.616;35.326;2024-01-30T22:33:05;13.80;;;7.10;;
36963;SDS011;22878;48.616;35.326;2024-01-30T22:35:33;14.00;;;7.10;;
36963;SDS011;22878;48.616;35.326;2024-01-30T22:37:59;16.80;;;7.60;;
36963;SDS011;22878;48.616;35.326;2024-01-30T22:40:26;13.90;;;7.30;;
36963;SDS011;22878;48.616;35.326;2024-01-30T22:42:51;14.80;;;7.40;;
36963;SDS011;22878;48.616;35.326;2024-01-30T22:45:19;16.70;;;7.60;;
36963;SDS011;22878;48.616;35.326;2024-01-30T22:47:44;14.60;;;7.60;;
36963;SDS011;22878;48.616;35.326;2024-01-30T22:50:09;15.30;;;6.90;;
36963;SDS011;22878;48.616;35.326;2024-01-30T22:52:35;14.80;;;7.00;;
36963;SDS011;22878;48.616;35.326;2024-01-30T22:55:01;14.30;;;7.40;;
36963;SDS011;22878;48.616;35.326;2024-01-30T22:57:27;13.80;;;7.50;;
36963;SDS011;22878;48.616;35.326;2024-01-30T22:59:52;15.10;;;6.60;;
36963;SDS011;22878;48.616;35.326;2024-01-30T23:02:17;15.20;;;7.40;;
36963;SDS011;22878;48.616;35.326;2024-01-30T23:04:43;16.10;;;6.80;;
36963;SDS011;22878;48.616;35.326;2024-01-30T23:07:08;14.20;;;7.10;;
36963;SDS011;22878;48.616;35.326;2024-01-30T23:09:34;14.70;;;7.00;;
36963;SDS011;22878;48.616;35.326;2024-01-30T23:11:59;13.70;;;6.90;;
36963;SDS011;22878;48.616;35.326;2024-01-30T23:14:25;14.10;;;6.70;;
36963;SDS011;22878;48.616;35.326;2024-01-30T23:16:50;15.90;;;6.40;;
36963;SDS011;22878;48.616;35.326;2024-01-30T23:19:15;14.20;;;6.90;;
36963;SDS011;22878;48.616;35.326;2024-01-30T23:21:41;14.50;;;7.10;;
36963;SDS011;22878;48.616;35.326;2024-01-30T23:24:06;14.50;;;7.10;;
36963;SDS011;22878;48.616;35.326;2024-01-30T23:26:32;14.60;;;7.00;;
36963;SDS011;22878;48.616;35.326;2024-01-30T23:28:57;15.30;;;7.20;;
36963;SDS011;22878;48.616;35.326;2024-01-30T23:31:23;13.20;;;6.80;;
36963;SDS011;22878;48.616;35.326;2024-01-30T23:33:48;11.70;;;6.60;;
36963;SDS011;22878;48.616;35.326;2024-01-30T23:36:14;13.50;;;6.90;;
36963;SDS011;22878;48.616;35.326;2024-01-30T23:38:39;16.10;;;7.30;;
36963;SDS011;22878;48.616;35.326;2024-01-30T23:41:05;15.30;;;6.90;;
36963;SDS011;22878;48.616;35.326;2024-01-30T23:43:31;15.10;;;7.30;;
36963;SDS011;22878;48.616;35.326;2024-01-30T23:45:57;15.40;;;6.90;;
36963;SDS011;22878;48.616;35.326;2024-01-30T23:48:22;16.60;;;7.10;;
36963;SDS011;22878;48.616;35.326;2024-01-30T23:50:48;14.80;;;7.20;;
36963;SDS011;22878;48.616;35.326;2024-01-30T23:53:14;16.80;;;7.80;;
36963;SDS011;22878;48.616;35.326;2024-01-30T23:55:40;15.00;;;6.90;;
36963;SDS011;22878;48.616;35.326;2024-01-30T23:58:05;14.30;;;6.90;;
